ADDS METAR Data INFO
IDs: Format: Raw Decoded Include TAF

Data at: 0233 UTC 22 Jul 2017

KRWL 220153Z AUTO 16015KT 10SM CLR 20/10 A3023 RMK AO2 SLP147 T02000100
KRWL 220053Z AUTO 14016G23KT 10SM CLR 23/09 A3024 RMK AO2 SLP141 T02330094
KRWL 212353Z AUTO 16009KT 10SM CLR 24/12 A3021 RMK AO2 LTG DSNT E-S SLP135 60001 T02440117 10306 20222 55000
KRWL 212325Z AUTO 33009KT 10SM FEW070 FEW090 SCT110 25/08 A3022 RMK AO2 LTG DSNT E AND SE T02500078
KRWL 212253Z AUTO 28010KT 10SM VCTS SCT110 23/09 A3021 RMK AO2 PK WND 32026/2227 LTG DSNT E-SW RAB31E52 TSB31E53 SLP134 P0001 T02280094
KRWL 212237Z AUTO 30017G23KT 8SM -TSRA FEW080 SCT110 22/11 A3021 RMK AO2 PK WND 32026/2227 LTG DSNT NE AND E AND SW RAB31 TSB31 P0001 T02220106
KRWL 212228Z AUTO 32021G26KT 10SM VCTS FEW080 FEW110 27/05 A3021 RMK AO2 PK WND 32026/2227 LTG DSNT ALQDS T02670050
KRWL 212218Z AUTO 32018G23KT 10SM FEW080 FEW090 28/07 A3020 RMK AO2 LTG DSNT ALQDS T02780072
KRWL 212153Z AUTO 30013G17KT 10SM VCTS SCT075 SCT095 29/08 A3021 RMK AO2 LTG DSNT W-NE SLP120 T02890078
KRWL 212053Z AUTO VRB06G16KT 10SM SCT070 BKN080 BKN120 30/09 A3021 RMK AO2 LTG DSNT N SLP122 T03000089 58018
KRWL 211953Z AUTO 24011KT 10SM FEW065 28/09 A3024 RMK AO2 SLP133 T02830094
KRWL 211853Z AUTO 19005G14KT 10SM CLR 27/09 A3026 RMK AO2 SLP146 T02670094
KRWL 211753Z AUTO 23012KT 10SM CLR 26/09 A3028 RMK AO2 SLP150 T02560094 10256 20133 56003
KRWL 211653Z AUTO 24011KT 10SM CLR 24/10 A3028 RMK AO2 SLP151 T02390100
KRWL 211553Z AUTO 24006KT 10SM CLR 21/11 A3028 RMK AO2 SLP155 T02110106
KRWL 211453Z AUTO 00000KT 10SM CLR 21/11 A3029 RMK AO2 SLP155 T02060106 53014
KRWL 211353Z AUTO 34003KT 10SM CLR 17/12 A3026 RMK AO2 SLP143 T01670122
KRWL 211253Z AUTO 33003KT 10SM CLR 16/12 A3025 RMK AO2 SLP137 T01610122
KRWL 211153Z AUTO 00000KT 10SM CLR 14/11 A3024 RMK AO2 SLP134 60001 70002 T01390111 10167 20139 55000
KRWL 211053Z AUTO 33003KT 10SM CLR 16/11 A3023 RMK AO2 SLP124 T01560111
KRWL 210953Z AUTO 29008KT 10SM CLR 17/11 A3023 RMK AO2 SLP124 T01670106
KRWL 210853Z AUTO 21003KT 10SM CLR 16/12 A3024 RMK AO2 RAE13 SLP129 P0000 60001 T01560122 56019
KRWL 210753Z AUTO 20004KT 9SM -RA FEW028 BKN075 OVC095 16/13 A3026 RMK AO2 RAE09B36 SLP139 P0001 T01560133
KRWL 210653Z AUTO 14011KT 10SM -RA FEW055 BKN095 OVC120 16/13 A3027 RMK AO2 RAE20B40 SLP148 P0000 T01560133 403170133
KRWL 210553Z AUTO 14006KT 7SM RA OVC075 16/13 A3031 RMK AO2 LTG DSNT S AND SW RAB05 SLP159 P0001 60001 T01610133 10294 20161 51025
KRWL 210453Z AUTO 15008KT 10SM SCT080 OVC095 18/11 A3029 RMK AO2 LTG DSNT ALQDS RAB03E22 TSE02 PRESRR SLP153 P0000 T01780111
KRWL 210428Z AUTO 34016KT 10SM FEW031 SCT100 BKN110 18/12 A3024 RMK AO2 LTG DSNT E AND SW RAB03E22 TSE02 P0000 T01780117
KRWL 210408Z AUTO 35011G17KT 9SM VCTS -RA FEW038 BKN095 OVC110 18/11 A3026 RMK AO2 LTG DSNT ALQDS RAB03 TSE02 P0000 T01830111
KRWL 210353Z AUTO 29008KT 10SM TS SCT080 BKN095 BKN120 20/09 A3026 RMK AO2 PK WND 35030/0256 LTG DSNT W-NE RAB10E24 TSB47 SLP142 P0000 T02000089
KRWL 210345Z AUTO 33009KT 10SM VCTS FEW100 SCT120 20/09 A3025 RMK AO2 PK WND 35030/0256 LTG DSNT W-NE RAB10E24 PRESRR P0000 T02000089
KRWL 210253Z AUTO 35023G33KT 10SM BKN100 22/07 A3022 RMK AO2 PK WND 35033/0248 WSHFT 0230 LTG DSNT SW SLP130 T02170072 51015
KRWL 210250Z AUTO 35021G33KT 10SM BKN100 22/07 A3021 RMK AO2 PK WND 35033/0248 WSHFT 0230 LTG DSNT SW
KRWL 210153Z AUTO 25009G17KT 10SM CLR 27/05 A3017 RMK AO2 SLP108 T02720050
KRWL 210053Z AUTO 24011KT 10SM CLR 28/08 A3016 RMK AO2 SLP108 T02830078
KRWL 202353Z AUTO 26014G23KT 10SM CLR 29/06 A3015 RMK AO2 SLP103 T02940061 10317 20267 56022
KRWL 202253Z AUTO 22019G23KT 10SM CLR 32/04 A3017 RMK AO2 SLP108 T03170044
KRWL 202153Z AUTO 23010G21KT 10SM CLR 31/05 A3020 RMK AO2 SLP118 T03060050
KRWL 202053Z AUTO 24012G19KT 10SM SCT080 31/07 A3023 RMK AO2 SLP128 T03110067 58019
KRWL 201953Z AUTO 25013G19KT 10SM CLR 31/08 A3026 RMK AO2 SLP136 T03060078
KRWL 201853Z AUTO 24009KT 10SM CLR 28/08 A3028 RMK AO2 SLP148 T02780078
KRWL 201753Z AUTO 28010KT 240V320 10SM CLR 27/08 A3030 RMK AO2 SLP153 T02720078 10278 20133 $
KRWL 201553Z AUTO 16003KT 10SM CLR 24/10 A3032 RMK AO2 SLP164 T02440100
KRWL 201453Z AUTO VRB03KT 10SM CLR 20/11 A3032 RMK AO2 SLP177 T02000106 50001